createdAt,value
2023-02-22T00:03:31.046Z,55.55
2023-02-22T00:06:04.576Z,62.30
2023-02-22T00:08:39.161Z,67.10
2023-02-22T00:11:14.760Z,64.03
2023-02-22T00:13:52.502Z,63.10
2023-02-22T00:16:28.119Z,57.63
2023-02-22T00:19:01.717Z,61.28
2023-02-22T00:21:36.665Z,69.05
2023-02-22T00:24:23.329Z,59.05
2023-02-22T00:26:57.854Z,60.65
2023-02-22T00:29:25.949Z,74.13
2023-02-22T00:31:55.004Z,54.75
2023-02-22T00:34:40.800Z,79.22
2023-02-22T00:37:10.185Z,68.30
2023-02-22T00:39:41.652Z,82.47
2023-02-22T00:42:11.826Z,82.57
2023-02-22T00:44:47.371Z,62.05
2023-02-22T00:47:17.600Z,65.85
2023-02-22T00:50:01.490Z,56.95
2023-02-22T00:52:33.778Z,84.00
2023-02-22T00:55:06.219Z,90.30
2023-02-22T00:57:35.509Z,91.93
2023-02-22T01:00:11.990Z,84.72
2023-02-22T01:02:48.733Z,72.82
2023-02-22T01:05:29.954Z,74.28
2023-02-22T01:08:03.330Z,72.07
2023-02-22T01:10:31.610Z,61.08
2023-02-22T01:13:03.284Z,73.97
2023-02-22T01:18:21.892Z,71.03
2023-02-22T01:20:51.453Z,81.57
2023-02-22T01:23:24.363Z,73.75
2023-02-22T01:26:28.415Z,75.07
2023-02-22T01:32:46.560Z,70.90
2023-02-22T01:35:28.671Z,66.88
2023-02-22T01:38:13.856Z,61.92
2023-02-22T01:41:11.211Z,62.95
2023-02-22T01:46:53.785Z,60.80
2023-02-22T01:49:32.544Z,60.35
2023-02-22T01:52:14.326Z,57.08
2023-02-22T01:54:59.766Z,80.55
2023-02-22T01:58:39.483Z,72.05
2023-02-22T02:06:44.196Z,64.50
2023-02-22T02:09:14.859Z,70.50
2023-02-22T02:14:09.771Z,71.70
2023-02-22T02:16:41.760Z,72.82
2023-02-22T02:19:13.246Z,77.65
2023-02-22T02:21:40.216Z,69.85
2023-02-22T02:24:38.508Z,74.10
2023-02-22T02:27:41.191Z,70.90
2023-02-22T02:30:50.670Z,82.57
2023-02-22T02:33:59.992Z,55.20
2023-02-22T02:36:37.143Z,70.35
2023-02-22T02:39:49.745Z,69.97
2023-02-22T02:42:32.697Z,70.50
2023-02-22T02:45:05.562Z,64.25
2023-02-22T02:50:10.664Z,49.78
2023-02-22T02:52:37.988Z,57.38
2023-02-22T02:55:24.267Z,61.97
2023-02-22T03:01:40.077Z,74.03
2023-02-22T03:07:30.174Z,71.50
2023-02-22T03:10:24.439Z,61.78
2023-02-22T03:13:23.573Z,74.47
2023-02-22T03:16:35.785Z,65.35
2023-02-22T03:19:26.209Z,57.17
2023-02-22T03:22:08.418Z,59.47
2023-02-22T03:27:54.434Z,58.20
2023-02-22T03:37:06.550Z,54.45
2023-02-22T03:39:54.683Z,55.83
2023-02-22T03:42:47.911Z,50.05
2023-02-22T03:45:35.128Z,50.83
2023-02-22T03:48:23.003Z,55.72
2023-02-22T03:56:52.839Z,50.00
2023-02-22T03:59:27.419Z,53.85
2023-02-22T04:02:29.279Z,51.13
2023-02-22T04:05:16.765Z,49.70
2023-02-22T04:07:54.258Z,50.90
2023-02-22T04:13:14.445Z,50.08
2023-02-22T04:16:15.435Z,50.22
2023-02-22T04:18:53.142Z,47.50
2023-02-22T04:21:34.261Z,51.35
2023-02-22T04:24:14.964Z,48.33
2023-02-22T04:26:51.780Z,46.60
2023-02-22T04:29:24.588Z,49.47
2023-02-22T04:31:57.845Z,52.15
2023-02-22T04:34:27.441Z,49.45
2023-02-22T04:36:58.614Z,46.50
2023-02-22T04:42:13.108Z,46.67
2023-02-22T04:44:50.136Z,44.85
2023-02-22T04:47:19.757Z,44.35
2023-02-22T04:49:55.625Z,41.75
2023-02-22T04:52:26.678Z,47.45
2023-02-22T04:55:15.437Z,41.70
2023-02-22T04:57:46.448Z,43.30
2023-02-22T05:00:22.590Z,39.63
2023-02-22T05:02:52.833Z,40.25
2023-02-22T05:05:35.128Z,39.15
2023-02-22T05:08:16.995Z,37.22
2023-02-22T05:14:13.075Z,39.88
2023-02-22T05:16:43.989Z,38.42
2023-02-22T05:19:21.134Z,37.85
2023-02-22T05:21:56.699Z,39.17
2023-02-22T05:24:41.372Z,37.92
2023-02-22T05:33:57.632Z,41.05
2023-02-22T05:36:39.594Z,43.33
2023-02-22T05:39:19.824Z,39.13
2023-02-22T05:45:45.110Z,38.88
2023-02-22T05:48:26.915Z,36.17
2023-02-22T05:51:19.935Z,38.15
2023-02-22T05:54:12.454Z,37.92
2023-02-22T05:56:57.317Z,37.22
2023-02-22T06:12:22.814Z,35.10
2023-02-22T06:15:00.309Z,37.42
2023-02-22T06:17:33.930Z,37.45
2023-02-22T06:20:10.279Z,38.08
2023-02-22T06:22:47.936Z,34.50
2023-02-22T06:25:21.203Z,37.10
2023-02-22T06:27:55.966Z,38.08
2023-02-22T06:30:29.711Z,37.00
2023-02-22T06:33:00.250Z,37.20
2023-02-22T06:35:34.604Z,38.50
2023-02-22T06:38:05.675Z,36.88
2023-02-22T06:40:41.303Z,40.92
2023-02-22T06:43:20.663Z,38.92
2023-02-22T06:45:52.286Z,37.60
2023-02-22T06:48:23.113Z,35.72
2023-02-22T06:53:26.211Z,31.77
2023-02-22T06:55:57.604Z,33.15
2023-02-22T06:58:24.753Z,31.77
2023-02-22T07:00:57.268Z,33.85
2023-02-22T07:03:24.525Z,31.73
2023-02-22T07:06:00.304Z,33.40
2023-02-22T07:08:31.213Z,32.40
2023-02-22T07:11:06.119Z,35.35
2023-02-22T07:13:35.905Z,32.35
2023-02-22T07:16:03.105Z,32.90
2023-02-22T07:18:34.685Z,32.92
2023-02-22T07:21:07.692Z,35.58
2023-02-22T07:23:38.273Z,30.95
2023-02-22T07:26:13.715Z,32.30
2023-02-22T07:28:48.353Z,29.95
2023-02-22T07:31:32.724Z,32.53
2023-02-22T07:34:01.716Z,32.70
2023-02-22T07:36:34.255Z,28.52
2023-02-22T07:39:16.618Z,27.85
2023-02-22T07:41:47.208Z,29.50
2023-02-22T07:46:56.885Z,29.20
2023-02-22T07:49:26.572Z,26.48
2023-02-22T07:51:53.717Z,26.00
2023-02-22T07:54:28.827Z,27.00
2023-02-22T07:57:07.142Z,27.48
2023-02-22T08:00:01.060Z,25.92
2023-02-22T08:05:14.104Z,23.70
2023-02-22T08:07:44.868Z,25.17
2023-02-22T08:10:24.650Z,24.45
2023-02-22T08:12:56.177Z,23.23
2023-02-22T08:15:32.652Z,25.40
2023-02-22T08:18:01.139Z,24.98
2023-02-22T08:20:31.748Z,25.48
2023-02-22T08:25:30.409Z,26.13
2023-02-22T08:27:59.901Z,26.02
2023-02-22T08:30:40.293Z,25.48
2023-02-22T08:35:37.756Z,27.25
2023-02-22T08:38:08.047Z,29.65
2023-02-22T08:40:40.403Z,24.33
2023-02-22T08:43:17.139Z,25.02
2023-02-22T08:45:47.573Z,23.50
2023-02-22T08:48:19.939Z,24.95
2023-02-22T08:50:53.789Z,25.48
2023-02-22T08:53:25.142Z,24.58
2023-02-22T08:56:00.083Z,24.95
2023-02-22T08:58:29.526Z,25.38
2023-02-22T09:01:03.600Z,24.10
2023-02-22T09:03:53.540Z,23.38
2023-02-22T09:06:22.275Z,21.45
2023-02-22T09:08:52.167Z,21.30
2023-02-22T09:11:26.130Z,21.63
2023-02-22T09:13:57.190Z,23.50
2023-02-22T09:16:30.382Z,22.13
2023-02-22T09:19:00.133Z,22.35
2023-02-22T09:21:35.648Z,20.77
2023-02-22T09:24:08.598Z,18.65
2023-02-22T09:26:39.384Z,18.20
2023-02-22T09:29:10.425Z,19.17
2023-02-22T09:31:37.660Z,18.42
2023-02-22T09:36:35.563Z,16.23
2023-02-22T09:39:02.779Z,15.23
2023-02-22T09:41:36.310Z,12.98
2023-02-22T09:44:19.713Z,15.40
2023-02-22T09:46:47.912Z,15.18
2023-02-22T09:49:21.033Z,15.20
2023-02-22T09:54:40.325Z,13.65
2023-02-22T09:57:16.178Z,13.77
2023-02-22T10:02:34.050Z,12.20
2023-02-22T10:05:09.759Z,11.55
2023-02-22T10:07:40.472Z,10.23
2023-02-22T10:10:13.909Z,9.77
2023-02-22T10:21:05.236Z,10.88
2023-02-22T10:23:32.292Z,7.50
2023-02-22T10:26:09.602Z,8.10
2023-02-22T10:28:39.919Z,10.90
2023-02-22T10:31:09.347Z,5.53
2023-02-22T10:39:12.160Z,8.07
2023-02-22T10:41:43.284Z,8.65
2023-02-22T10:44:10.711Z,8.23
2023-02-22T10:46:39.764Z,9.43
2023-02-22T10:49:07.426Z,7.68
2023-02-22T10:51:48.952Z,8.30
2023-02-22T10:54:16.045Z,8.10
2023-02-22T10:56:55.436Z,7.20
2023-02-22T10:59:33.380Z,11.43
2023-02-22T11:02:00.958Z,8.52
2023-02-22T11:04:36.350Z,9.50
2023-02-22T11:07:10.964Z,9.43
2023-02-22T11:09:45.952Z,9.30
2023-02-22T11:12:18.108Z,9.45
2023-02-22T11:14:45.300Z,9.55
2023-02-22T11:17:15.470Z,9.05
2023-02-22T11:19:47.881Z,10.45
2023-02-22T11:22:21.297Z,10.23
2023-02-22T11:24:57.420Z,10.38
2023-02-22T11:27:41.018Z,9.15
2023-02-22T11:30:11.352Z,8.70
2023-02-22T11:32:44.694Z,8.10
2023-02-22T11:35:31.320Z,9.05
2023-02-22T11:38:17.422Z,9.00
2023-02-22T11:40:45.234Z,9.30
2023-02-22T11:43:16.632Z,8.68
2023-02-22T11:46:16.224Z,8.80
2023-02-22T11:54:09.150Z,8.63
2023-02-22T11:56:46.326Z,7.22
2023-02-22T11:59:19.461Z,7.63
2023-02-22T12:02:05.246Z,6.25
2023-02-22T12:04:41.988Z,8.02
2023-02-22T12:07:32.619Z,7.30
2023-02-22T12:23:59.924Z,8.98
2023-02-22T12:26:32.990Z,8.25
2023-02-22T12:29:05.060Z,8.35
2023-02-22T12:31:36.705Z,8.40
2023-02-22T12:34:14.335Z,7.80
2023-02-22T12:39:28.896Z,8.50
2023-02-22T12:44:27.109Z,9.70
2023-02-22T12:46:55.621Z,8.70
2023-02-22T12:49:32.244Z,8.40
2023-02-22T12:52:21.201Z,8.85
2023-02-22T12:55:07.494Z,9.35
2023-02-22T12:57:49.821Z,9.18
2023-02-22T13:08:39.611Z,8.57
2023-02-22T13:11:15.503Z,9.00
2023-02-22T13:13:52.554Z,8.82
2023-02-22T13:16:28.609Z,9.23
2023-02-22T13:19:14.633Z,9.40
2023-02-22T13:21:50.233Z,8.95
2023-02-22T13:26:50.663Z,9.90
2023-02-22T13:29:21.619Z,10.57
2023-02-22T13:32:07.663Z,10.48
2023-02-22T13:34:37.866Z,9.90
2023-02-22T13:37:13.788Z,10.20
2023-02-22T13:42:46.606Z,10.52
2023-02-22T13:45:27.175Z,10.38
2023-02-22T13:53:46.273Z,10.00
2023-02-22T13:56:14.650Z,10.57
2023-02-22T13:58:52.634Z,11.07
2023-02-22T14:01:38.794Z,12.05
2023-02-22T14:04:21.192Z,12.05
2023-02-22T14:06:48.266Z,11.02
2023-02-22T14:09:38.110Z,10.48
2023-02-22T14:12:05.111Z,9.85
2023-02-22T14:14:32.254Z,10.77
2023-02-22T14:17:18.144Z,10.27
2023-02-22T14:22:47.668Z,11.02
2023-02-22T14:25:37.965Z,9.50
2023-02-22T14:28:11.628Z,10.82
2023-02-22T14:30:42.883Z,11.52
2023-02-22T14:33:40.199Z,9.77
2023-02-22T14:36:13.055Z,10.85
2023-02-22T14:38:45.337Z,10.57
2023-02-22T14:44:14.607Z,10.20
2023-02-22T14:46:50.998Z,10.20
2023-02-22T14:49:20.849Z,10.32
2023-02-22T14:52:00.107Z,10.02
2023-02-22T14:54:31.260Z,10.82
2023-02-22T14:57:04.769Z,12.15
2023-02-22T14:59:33.081Z,10.77
2023-02-22T15:02:11.744Z,10.05
2023-02-22T15:04:43.769Z,10.68
2023-02-22T15:07:21.721Z,11.75
2023-02-22T15:09:48.760Z,11.82
2023-02-22T15:12:25.157Z,10.57
2023-02-22T15:17:25.472Z,11.82
2023-02-22T15:19:52.979Z,11.38
2023-02-22T15:22:25.110Z,11.50
2023-02-22T15:24:59.654Z,12.68
2023-02-22T15:27:27.781Z,12.55
2023-02-22T15:29:59.733Z,11.35
2023-02-22T15:32:34.739Z,11.23
2023-02-22T15:35:19.383Z,12.80
2023-02-22T15:37:47.372Z,12.00
2023-02-22T15:40:16.167Z,12.35
2023-02-22T15:42:44.805Z,12.50
2023-02-22T15:45:16.235Z,14.10
2023-02-22T15:47:43.394Z,13.63
2023-02-22T15:50:23.483Z,13.13
2023-02-22T15:52:53.233Z,12.70
2023-02-22T15:55:24.798Z,12.23
2023-02-22T15:57:53.162Z,12.07
2023-02-22T16:00:36.060Z,12.95
2023-02-22T16:03:05.031Z,12.93
2023-02-22T16:08:03.361Z,11.98
2023-02-22T16:10:33.429Z,13.27
2023-02-22T16:13:04.324Z,13.52
2023-02-22T16:15:34.637Z,13.05
2023-02-22T16:18:18.004Z,12.73
2023-02-22T16:20:45.133Z,15.85
2023-02-22T16:29:11.154Z,12.88
2023-02-22T16:34:07.447Z,12.57
2023-02-22T16:36:39.434Z,12.95
2023-02-22T16:39:14.803Z,13.38
2023-02-22T16:41:41.920Z,13.90
2023-02-22T16:44:12.714Z,13.55
2023-02-22T16:46:41.752Z,12.10
2023-02-22T16:49:12.339Z,15.68
2023-02-22T16:51:44.984Z,13.02
2023-02-22T16:54:13.616Z,13.90
2023-02-22T16:56:40.911Z,13.82
2023-02-22T16:59:30.711Z,13.20
2023-02-22T17:01:58.783Z,14.18
2023-02-22T17:04:28.790Z,13.27
2023-02-22T17:06:58.920Z,14.05
2023-02-22T17:09:27.141Z,13.70
2023-02-22T17:11:55.293Z,13.65
2023-02-22T17:19:47.661Z,12.75
2023-02-22T17:22:19.034Z,12.63
2023-02-22T17:24:46.117Z,13.23
2023-02-22T17:27:13.515Z,12.65
2023-02-22T17:29:45.086Z,12.95
2023-02-22T17:34:55.510Z,14.20
2023-02-22T17:37:22.829Z,14.38
2023-02-22T17:39:49.965Z,13.05
2023-02-22T17:42:17.043Z,13.55
2023-02-22T17:44:44.048Z,12.82
2023-02-22T17:49:51.940Z,14.85
2023-02-22T17:52:18.981Z,13.43
2023-02-22T17:54:46.088Z,14.45
2023-02-22T17:57:13.145Z,15.52
2023-02-22T17:59:40.697Z,13.55
2023-02-22T18:04:51.115Z,14.30
2023-02-22T18:07:19.744Z,13.98
2023-02-22T18:09:48.026Z,13.48
2023-02-22T18:12:15.028Z,13.10
2023-02-22T18:14:42.185Z,13.15
2023-02-22T18:17:15.573Z,13.55
2023-02-22T18:19:42.628Z,12.52
2023-02-22T18:22:10.260Z,12.68
2023-02-22T18:24:37.251Z,13.07
2023-02-22T18:27:07.200Z,14.50
2023-02-22T18:29:34.714Z,12.65
2023-02-22T18:32:13.405Z,13.82
2023-02-22T18:34:40.884Z,13.80
2023-02-22T18:37:07.973Z,14.40
2023-02-22T18:39:40.767Z,12.88
2023-02-22T18:42:08.004Z,13.30
2023-02-22T18:44:35.121Z,13.90
2023-02-22T18:49:32.931Z,14.30
2023-02-22T18:52:00.026Z,12.85
2023-02-22T18:54:28.144Z,12.63
2023-02-22T18:56:55.219Z,14.05
2023-02-22T18:59:22.200Z,13.50
2023-02-22T19:02:02.732Z,14.20
2023-02-22T19:06:57.579Z,13.88
2023-02-22T19:09:25.072Z,14.93
2023-02-22T19:11:54.412Z,12.15
2023-02-22T19:14:21.455Z,13.00
2023-02-22T19:19:31.855Z,14.02
2023-02-22T19:21:58.894Z,13.18
2023-02-22T19:24:25.952Z,14.65
2023-02-22T19:26:57.209Z,14.35
2023-02-22T19:29:24.432Z,13.45
2023-02-22T19:37:35.522Z,12.93
2023-02-22T19:40:06.398Z,13.85
2023-02-22T19:42:33.577Z,13.73
2023-02-22T19:45:00.621Z,13.00
2023-02-22T19:47:27.650Z,13.25
2023-02-22T19:49:57.202Z,15.05
2023-02-22T19:52:28.190Z,13.75
2023-02-22T19:54:55.196Z,13.02
2023-02-22T19:57:24.186Z,12.85
2023-02-22T19:59:51.878Z,12.02
2023-02-22T20:02:20.425Z,13.55
2023-02-22T20:04:49.951Z,13.55
2023-02-22T20:07:17.108Z,12.65
2023-02-22T20:09:44.340Z,14.00
2023-02-22T20:12:12.589Z,13.40
2023-02-22T20:14:39.636Z,12.95
2023-02-22T20:17:07.780Z,14.60
2023-02-22T20:19:37.101Z,14.45
2023-02-22T20:22:04.189Z,13.65
2023-02-22T20:24:31.201Z,14.82
2023-02-22T20:26:58.308Z,14.98
2023-02-22T20:29:31.889Z,15.80
2023-02-22T20:32:00.856Z,13.88
2023-02-22T20:34:36.040Z,15.02
2023-02-22T20:37:04.752Z,14.05
2023-02-22T20:39:33.113Z,15.52
2023-02-22T20:42:00.528Z,14.32
2023-02-22T20:44:27.691Z,15.48
2023-02-22T20:46:54.750Z,14.55
2023-02-22T20:52:09.053Z,16.15
2023-02-22T20:54:37.901Z,14.52
2023-02-22T20:57:08.242Z,16.42
2023-02-22T20:59:35.472Z,16.75
2023-02-22T21:02:02.659Z,14.95
2023-02-22T21:09:57.503Z,17.63
2023-02-22T21:12:24.661Z,16.77
2023-02-22T21:14:51.835Z,19.02
2023-02-22T21:17:26.914Z,15.98
2023-02-22T21:19:55.306Z,16.02
2023-02-22T21:25:03.584Z,17.40
2023-02-22T21:27:31.614Z,16.88
2023-02-22T21:29:58.744Z,17.25
2023-02-22T21:32:25.764Z,18.48
2023-02-22T21:34:54.097Z,17.45
2023-02-22T21:37:30.399Z,16.73
2023-02-22T21:39:58.998Z,17.95
2023-02-22T21:42:26.000Z,18.58
2023-02-22T21:44:56.257Z,19.30
2023-02-22T21:47:24.122Z,18.95
2023-02-22T21:49:51.235Z,19.15
2023-02-22T21:54:59.144Z,19.95
2023-02-22T21:57:26.220Z,20.52
2023-02-22T21:59:53.303Z,20.00
2023-02-22T22:02:22.129Z,20.23
2023-02-22T22:04:50.506Z,21.02
2023-02-22T22:07:24.374Z,21.85
2023-02-22T22:09:56.441Z,21.73
2023-02-22T22:12:28.308Z,22.67
2023-02-22T22:14:58.575Z,22.08
2023-02-22T22:17:26.882Z,22.77
2023-02-22T22:19:53.972Z,22.13
2023-02-22T22:22:20.903Z,24.13
2023-02-22T22:24:48.597Z,23.20
2023-02-22T22:27:16.445Z,23.23
2023-02-22T22:29:43.686Z,24.13
2023-02-22T22:32:10.915Z,23.10
2023-02-22T22:34:38.138Z,26.50
2023-02-22T22:39:52.698Z,24.80
2023-02-22T22:42:19.749Z,26.30
2023-02-22T22:44:50.429Z,27.38
2023-02-22T22:47:21.287Z,24.58
2023-02-22T22:49:49.215Z,27.05
2023-02-22T22:52:18.379Z,26.17
2023-02-22T22:54:45.394Z,27.77
2023-02-22T22:57:12.468Z,27.30
2023-02-22T22:59:39.695Z,28.38
2023-02-22T23:02:11.333Z,26.98
2023-02-22T23:04:38.399Z,25.60
2023-02-22T23:15:08.796Z,27.42
2023-02-22T23:17:42.405Z,28.90
2023-02-22T23:20:12.948Z,28.73
2023-02-22T23:25:09.336Z,28.65
2023-02-22T23:27:36.683Z,27.65
2023-02-22T23:30:03.743Z,29.08
2023-02-22T23:32:30.805Z,27.05
2023-02-22T23:34:57.914Z,28.48
2023-02-22T23:37:25.051Z,28.90
2023-02-22T23:42:29.773Z,27.58
2023-02-22T23:44:57.138Z,28.38
2023-02-22T23:47:24.730Z,28.63
2023-02-22T23:49:51.746Z,27.92
2023-02-22T23:52:23.847Z,30.83
2023-02-22T23:58:00.344Z,29.08
